Time;durP1;ratioP1;P1;durP2;ratioP2;P2;SDS_P1;SDS_P2;PMS_P1;PMS_P2;Temp;Humidity;BMP_temperature;BMP_pressure;BME280_temperature;BME280_humidity;BME280_pressure;Samples;Min_cycle;Max_cycle;Signal;HPM_P1;HPM_P2
2021/05/22 00:01:55;;;;;;;1.40;1.30;;;10.80;60.60;;;;;;5027050;28;20459;-90
2021/05/22 00:04:38;;;;;;;3.17;1.60;;;10.90;60.80;;;;;;5038669;28;20256;-89
2021/05/22 00:07:40;;;;;;;3.83;1.37;;;10.80;60.40;;;;;;5039648;28;20403;-90
2021/05/22 00:13:19;;;;;;;1.83;1.70;;;10.70;60.30;;;;;;5180875;23;20492;-87
2021/05/22 00:15:48;;;;;;;4.03;2.30;;;10.50;64.00;;;;;;5078597;28;20155;-89
2021/05/22 00:18:23;;;;;;;3.33;1.33;;;11.20;61.10;;;;;;5078939;28;20410;-88
2021/05/22 00:21:24;;;;;;;1.10;1.10;;;12.20;63.70;;;;;;5078241;28;20417;-89
2021/05/22 00:23:55;;;;;;;1.37;1.17;;;11.30;60.80;;;;;;5078463;28;20178;-88
2021/05/22 00:26:28;;;;;;;2.70;1.60;;;11.90;61.50;;;;;;5078594;28;20398;-88
2021/05/22 00:28:54;;;;;;;3.13;1.40;;;11.00;64.40;;;;;;5078791;28;20179;-88
2021/05/22 00:31:25;;;;;;;1.50;1.50;;;10.80;62.90;;;;;;5078306;28;20436;-90
2021/05/22 00:34:17;;;;;;;1.73;1.20;;;11.60;65.50;;;;;;5077226;28;20189;-90
2021/05/22 00:36:49;;;;;;;3.33;1.20;;;12.60;63.20;;;;;;5074519;28;20496;-90
2021/05/22 00:40:11;;;;;;;1.60;1.30;;;11.20;60.20;;;;;;5074650;28;20473;-90
2021/05/22 00:42:43;;;;;;;4.83;1.50;;;10.80;59.70;;;;;;5075285;28;20406;-90
2021/05/22 00:45:28;;;;;;;2.00;0.90;;;10.80;61.40;;;;;;5075846;28;20418;-89
2021/05/22 00:53:10;;;;;;;5.15;1.50;;;10.60;59.90;;;;;;5202316;23;20233;-88
2021/05/22 00:55:36;;;;;;;1.53;1.07;;;10.50;59.90;;;;;;5035881;28;20209;-88
2021/05/22 00:58:04;;;;;;;1.60;1.47;;;11.60;61.20;;;;;;5021255;28;20472;-89
2021/05/22 01:00:58;;;;;;;3.03;1.60;;;10.40;60.20;;;;;;5037508;28;20436;-89
2021/05/22 01:03:47;;;;;;;2.95;1.30;;;11.20;59.80;;;;;;5038496;28;20416;-89
2021/05/22 01:06:40;;;;;;;1.60;1.40;;;10.30;59.20;;;;;;5039366;28;20142;-89
2021/05/22 01:09:27;;;;;;;1.47;1.23;;;10.40;59.80;;;;;;5037268;28;20407;-89
2021/05/22 01:12:42;;;;;;;4.30;1.50;;;11.10;61.20;;;;;;5038046;28;20479;-89
2021/05/22 01:15:46;;;;;;;1.67;1.50;;;10.20;59.70;;;;;;5038624;28;20187;-90
2021/05/22 01:18:24;;;;;;;2.27;1.53;;;10.50;61.70;;;;;;5012903;28;20223;-88
2021/05/22 01:21:09;;;;;;;1.90;1.00;;;10.70;60.70;;;;;;5037767;28;20410;-89
2021/05/22 01:24:00;;;;;;;1.70;1.47;;;10.30;60.80;;;;;;5038493;28;20545;-89
2021/05/22 01:26:47;;;;;;;2.37;2.27;;;10.40;60.70;;;;;;5018339;28;20515;-90
2021/05/22 01:29:27;;;;;;;3.17;1.20;;;10.50;60.80;;;;;;5020402;28;20423;-88
2021/05/22 01:32:14;;;;;;;5.27;1.47;;;11.90;62.40;;;;;;5038098;28;20412;-90
2021/05/22 01:34:58;;;;;;;1.40;1.30;;;10.10;61.80;;;;;;5037283;28;20423;-89
2021/05/22 01:37:28;;;;;;;1.30;1.20;;;10.20;61.70;;;;;;5036760;28;20534;-90
2021/05/22 01:40:17;;;;;;;3.93;1.20;;;11.90;64.40;;;;;;5020865;28;20251;-90
2021/05/22 01:43:02;;;;;;;1.45;1.23;;;9.80;61.60;;;;;;5038551;28;20426;-89
2021/05/22 01:45:41;;;;;;;1.37;1.37;;;11.20;63.40;;;;;;5032988;28;20173;-90
2021/05/22 01:48:45;;;;;;;1.33;1.33;;;11.70;64.50;;;;;;5037370;28;20422;-89
2021/05/22 01:51:51;;;;;;;2.57;1.40;;;11.00;62.50;;;;;;5037476;28;20176;-91
2021/05/22 02:01:18;;;;;;;1.67;1.23;;;10.70;61.40;;;;;;5075216;28;20456;-89
2021/05/22 02:04:12;;;;;;;1.70;1.60;;;10.90;61.30;;;;;;5077791;28;20174;-89
2021/05/22 02:07:28;;;;;;;2.83;1.40;;;13.00;65.20;;;;;;5072262;28;20176;-89
2021/05/22 02:10:19;;;;;;;1.10;1.10;;;10.00;60.10;;;;;;5076490;28;20433;-89
2021/05/22 02:13:07;;;;;;;2.30;1.40;;;10.40;60.30;;;;;;5058860;28;20488;-90
2021/05/22 02:22:41;;;;;;;1.13;1.10;;;10.90;60.30;;;;;;5077044;28;20158;-90
2021/05/22 02:25:21;;;;;;;1.30;1.23;;;11.00;60.10;;;;;;5076366;28;20417;-89
2021/05/22 02:28:40;;;;;;;1.73;1.63;;;10.30;59.50;;;;;;5065930;28;20413;-90
2021/05/22 02:31:25;;;;;;;1.27;1.17;;;10.50;59.90;;;;;;5070502;28;20410;-89
2021/05/22 02:38:14;;;;;;;2.40;1.42;;;11.00;59.80;;;;;;5077017;28;20552;-90
2021/05/22 02:41:03;;;;;;;1.13;1.07;;;10.20;60.00;;;;;;5072438;28;20229;-90
2021/05/22 02:47:04;;;;;;;3.25;2.20;;;10.70;59.50;;;;;;4873596;26;20511;-90
2021/05/22 02:49:41;;;;;;;;;;;;;;;;;;;;;
2021/05/22 02:52:28;;;;;;;1.57;1.30;;;10.50;61.90;;;;;;5017474;28;20392;-89
2021/05/22 02:55:01;;;;;;;1.98;1.70;;;11.10;59.70;;;;;;5015015;28;20416;-88
2021/05/22 02:57:52;;;;;;;3.10;1.00;;;10.60;60.00;;;;;;5014841;28;20224;-89
2021/05/22 03:00:28;;;;;;;3.72;1.58;;;10.80;59.40;;;;;;5016540;28;20464;-90
2021/05/22 03:03:02;;;;;;;1.53;1.53;;;10.60;58.90;;;;;;5015512;28;20185;-89
2021/05/22 03:05:41;;;;;;;1.35;1.25;;;10.40;59.40;;;;;;5016221;28;20449;-89
2021/05/22 03:08:16;;;;;;;1.27;0.95;;;11.10;59.10;;;;;;5017449;28;20205;-89
2021/05/22 03:11:05;;;;;;;2.00;1.33;;;11.80;60.00;;;;;;5015390;28;20172;-89
2021/05/22 03:13:47;;;;;;;2.00;1.43;;;10.80;59.10;;;;;;5223978;23;20529;-88
2021/05/22 03:19:01;;;;;;;1.10;1.10;;;10.60;58.30;;;;;;5356951;23;20480;-89
2021/05/22 03:21:53;;;;;;;1.33;1.13;;;12.60;63.60;;;;;;4999902;28;20449;-88
2021/05/22 03:24:19;;;;;;;2.10;1.70;;;10.80;59.30;;;;;;5001720;28;20416;-89
2021/05/22 03:26:57;;;;;;;;;;;;;;;;;;;;;
2021/05/22 03:29:26;;;;;;;3.63;1.73;;;9.20;60.50;;;;;;5021273;28;20176;-89
2021/05/22 03:32:17;;;;;;;1.70;0.97;;;13.20;63.80;;;;;;5003434;28;20432;-89
2021/05/22 03:34:48;;;;;;;1.90;1.10;;;10.70;59.90;;;;;;4991240;28;20405;-89
2021/05/22 03:37:20;;;;;;;4.83;1.13;;;12.00;63.50;;;;;;5003651;28;20453;-89
2021/05/22 03:39:48;;;;;;;1.27;1.20;;;10.70;59.50;;;;;;5004202;28;20500;-89
2021/05/22 03:42:25;;;;;;;1.53;1.43;;;9.70;61.60;;;;;;5003519;28;20451;-90
2021/05/22 03:44:56;;;;;;;1.80;1.00;;;10.60;59.40;;;;;;5002658;28;20432;-89
2021/05/22 03:50:04;;;;;;;3.15;1.35;;;10.50;58.40;;;;;;5515095;23;20567;-90
2021/05/22 03:52:34;;;;;;;1.57;1.40;;;11.20;58.70;;;;;;5038770;28;20156;-89
2021/05/22 03:55:34;;;;;;;1.10;1.10;;;11.50;62.10;;;;;;5022149;28;20436;-88
2021/05/22 03:58:57;;;;;;;;;;;;;;;;;;;;;
2021/05/22 04:14:29;;;;;;;1.00;1.00;;;10.60;58.30;;;;;;5424186;23;20498;-87
2021/05/22 04:16:54;;;;;;;2.60;1.40;;;12.00;60.40;;;;;;5039867;28;20518;-90
2021/05/22 04:19:21;;;;;;;3.37;1.63;;;12.80;64.80;;;;;;5038160;28;20435;-90
2021/05/22 04:24:47;;;;;;;1.33;1.10;;;10.80;58.80;;;;;;5390598;23;20506;-88
2021/05/22 04:27:17;;;;;;;6.53;1.85;;;12.90;63.20;;;;;;5006410;28;20421;-89
2021/05/22 04:29:45;;;;;;;5.32;3.75;;;11.90;59.60;;;;;;5039268;28;20183;-89
2021/05/22 04:32:11;;;;;;;2.07;1.40;;;11.90;62.20;;;;;;5021894;28;20173;-89
2021/05/22 04:34:39;;;;;;;1.53;1.17;;;12.60;64.20;;;;;;5039405;28;20428;-89
2021/05/22 04:37:05;;;;;;;2.97;1.40;;;10.60;60.50;;;;;;5282054;23;20291;-90
2021/05/22 04:39:45;;;;;;;3.53;1.70;;;13.30;66.40;;;;;;6047499;23;20595;31
2021/05/22 04:42:41;;;;;;;1.47;1.20;;;10.20;59.00;;;;;;4959121;28;20239;-89
2021/05/22 04:45:45;;;;;;;1.87;1.20;;;10.70;58.80;;;;;;4960296;28;20424;-90
2021/05/22 04:48:15;;;;;;;2.93;1.70;;;10.70;59.00;;;;;;4960530;28;20435;-90
2021/05/22 04:56:49;;;;;;;3.73;1.50;;;10.70;59.30;;;;;;5255137;23;21005;-88
2021/05/22 04:59:27;;;;;;;;;;;;;;;;;;;;;
2021/05/22 05:01:53;;;;;;;1.70;1.30;;;12.60;62.90;;;;;;5035527;28;20443;-90
2021/05/22 05:04:19;;;;;;;4.10;1.90;;;10.80;62.50;;;;;;5037033;28;20428;-89
2021/05/22 05:06:45;;;;;;;1.80;1.80;;;11.30;64.80;;;;;;5020717;28;20487;-91
2021/05/22 05:09:11;;;;;;;4.47;1.80;;;12.00;64.50;;;;;;5017163;28;20172;-90
2021/05/22 05:11:37;;;;;;;1.40;1.23;;;11.30;60.80;;;;;;5020426;28;20181;-90
2021/05/22 05:14:03;;;;;;;2.93;1.07;;;11.60;64.60;;;;;;5020008;28;20523;-92
2021/05/22 05:16:28;;;;;;;6.03;1.83;;;11.10;59.70;;;;;;5140167;23;20239;-90
2021/05/22 05:18:54;;;;;;;4.00;2.00;;;13.10;65.50;;;;;;5037417;28;20432;-89
2021/05/22 05:21:20;;;;;;;1.77;1.30;;;12.20;62.80;;;;;;5037692;28;20176;-91
2021/05/22 05:23:46;;;;;;;1.90;1.40;;;13.80;63.00;;;;;;5036703;28;20451;-89
2021/05/22 05:26:12;;;;;;;4.60;1.43;;;12.60;63.30;;;;;;5036811;28;20419;-88
2021/05/22 05:28:44;;;;;;;1.70;1.57;;;11.50;61.20;;;;;;5035942;28;20188;-90
2021/05/22 05:31:10;;;;;;;2.63;1.37;;;12.50;62.90;;;;;;5036559;28;20232;-90
2021/05/22 05:33:35;;;;;;;1.20;1.10;;;12.70;62.60;;;;;;5037426;28;20448;-89
2021/05/22 05:36:01;;;;;;;4.47;1.40;;;11.50;61.70;;;;;;5036559;28;20416;-90
2021/05/22 05:38:27;;;;;;;2.53;1.40;;;13.30;63.90;;;;;;5031380;28;20252;-87
2021/05/22 05:40:55;;;;;;;1.93;1.63;;;11.40;62.10;;;;;;5033369;28;20173;-91
2021/05/22 05:43:25;;;;;;;6.13;2.00;;;12.70;60.90;;;;;;5026882;28;20236;-90
2021/05/22 05:45:59;;;;;;;1.80;1.20;;;12.70;61.70;;;;;;4335103;28;10000635;-90
2021/05/22 05:48:27;;;;;;;2.13;1.30;;;11.80;58.90;;;;;;5028009;28;20180;-90
2021/05/22 05:50:53;;;;;;;3.90;1.60;;;13.20;60.10;;;;;;5026408;28;20612;-91
2021/05/22 05:53:19;;;;;;;1.80;1.70;;;11.40;58.80;;;;;;5029903;28;20427;-90
2021/05/22 05:55:46;;;;;;;3.23;1.30;;;12.20;60.90;;;;;;5030159;28;20192;-91
2021/05/22 05:58:16;;;;;;;5.03;1.30;;;12.10;58.40;;;;;;5032282;28;20412;-90
2021/05/22 06:00:43;;;;;;;2.20;1.63;;;12.30;57.40;;;;;;5029953;28;20415;-90
2021/05/22 06:03:51;;;;;;;5.07;1.80;;;12.50;58.80;;;;;;5034189;28;20427;-91
2021/05/22 06:06:23;;;;;;;4.07;1.50;;;11.80;56.80;;;;;;5035522;28;20439;-91
2021/05/22 06:08:55;;;;;;;4.00;1.63;;;11.40;57.00;;;;;;5030392;28;20478;-90
2021/05/22 06:11:23;;;;;;;1.23;1.23;;;11.60;58.50;;;;;;5025900;28;20428;-87
2021/05/22 06:13:49;;;;;;;3.30;1.40;;;12.50;60.20;;;;;;5012032;28;20434;-88
2021/05/22 06:16:36;;;;;;;6.33;1.40;;;11.00;59.10;;;;;;5011672;28;20554;-88
2021/05/22 06:19:00;;;;;;;1.17;1.07;;;10.80;59.00;;;;;;5011263;28;20279;-88
2021/05/22 06:21:26;;;;;;;3.90;1.50;;;11.10;59.00;;;;;;5010735;28;20526;-89
2021/05/22 06:23:52;;;;;;;1.70;1.60;;;11.00;59.60;;;;;;5011026;28;20180;-88
2021/05/22 06:26:17;;;;;;;2.70;1.33;;;11.00;59.60;;;;;;5011695;28;20176;-88
2021/05/22 06:28:43;;;;;;;2.17;1.57;;;11.00;59.40;;;;;;5011742;28;20176;-88
2021/05/22 06:31:09;;;;;;;3.03;1.50;;;11.00;59.40;;;;;;4994024;28;20192;-90
2021/05/22 06:33:35;;;;;;;2.23;1.20;;;11.10;59.30;;;;;;5012223;28;20559;-88
2021/05/22 06:36:01;;;;;;;4.70;1.57;;;11.10;60.00;;;;;;5011158;28;20168;-88
2021/05/22 06:38:27;;;;;;;4.73;1.80;;;11.00;62.40;;;;;;5011178;28;20471;-89
2021/05/22 06:40:53;;;;;;;2.30;1.43;;;10.90;63.20;;;;;;4994378;28;20477;-88
2021/05/22 06:43:18;;;;;;;3.40;1.50;;;10.80;64.30;;;;;;4994942;28;20192;-89
2021/05/22 06:45:46;;;;;;;1.20;1.10;;;10.70;64.90;;;;;;4996837;28;20420;-90
2021/05/22 06:48:13;;;;;;;0.98;0.90;;;10.70;65.20;;;;;;4978633;28;20173;-89
2021/05/22 06:50:40;;;;;;;1.85;1.15;;;10.60;64.70;;;;;;4994647;28;20273;-90
2021/05/22 06:53:07;;;;;;;1.93;1.30;;;10.60;65.30;;;;;;4992952;28;20247;-89
2021/05/22 06:55:33;;;;;;;4.80;1.55;;;10.50;64.90;;;;;;4977473;28;20423;-90
2021/05/22 06:58:00;;;;;;;1.63;1.17;;;10.60;66.60;;;;;;4995355;28;20217;-89
2021/05/22 07:00:26;;;;;;;3.13;1.77;;;10.60;66.10;;;;;;4978728;28;20221;-89
2021/05/22 07:02:51;;;;;;;1.63;1.53;;;10.70;65.30;;;;;;4982841;28;20424;-89
2021/05/22 07:05:18;;;;;;;6.17;1.03;;;10.90;67.40;;;;;;4984165;28;20417;-89
2021/05/22 07:07:44;;;;;;;1.88;1.13;;;10.60;64.30;;;;;;4986706;28;20177;-90
2021/05/22 07:10:13;;;;;;;2.60;1.73;;;10.50;63.70;;;;;;4987353;28;20609;-91
2021/05/22 07:12:40;;;;;;;1.13;0.90;;;11.20;64.70;;;;;;4973583;28;20185;-90
2021/05/22 07:15:07;;;;;;;1.50;1.40;;;12.10;66.50;;;;;;5009563;28;20408;-89
2021/05/22 07:17:33;;;;;;;2.03;1.63;;;10.80;64.20;;;;;;5008298;28;20537;-90
2021/05/22 07:19:58;;;;;;;3.97;2.00;;;11.00;67.10;;;;;;4978887;28;20461;-90
2021/05/22 07:22:24;;;;;;;5.83;1.53;;;13.00;66.70;;;;;;4982364;28;20473;-89
2021/05/22 07:25:02;;;;;;;2.33;1.17;;;10.90;63.40;;;;;;5005120;28;20577;-90
2021/05/22 07:27:53;;;;;;;2.60;1.40;;;11.00;62.30;;;;;;5016496;28;20492;-91
2021/05/22 07:30:24;;;;;;;2.63;0.80;;;11.10;62.90;;;;;;5000889;28;20436;-92
2021/05/22 07:32:51;;;;;;;1.70;1.40;;;10.10;63.90;;;;;;5015123;28;20421;-90
2021/05/22 07:35:19;;;;;;;1.57;0.77;;;13.20;65.30;;;;;;4996867;28;20440;-90
2021/05/22 07:37:53;;;;;;;1.60;1.50;;;11.10;61.70;;;;;;5017628;28;20466;-88
2021/05/22 07:40:33;;;;;;;5.30;1.25;;;11.30;60.70;;;;;;4999547;28;20180;-89
2021/05/22 07:43:19;;;;;;;0.63;0.63;;;11.40;59.60;;;;;;5015046;28;20172;-90
2021/05/22 07:46:16;;;;;;;0.93;0.83;;;10.00;57.90;;;;;;5016827;28;20774;-89
2021/05/22 07:54:01;;;;;;;5.80;1.53;;;11.30;58.90;;;;;;4688773;28;10000143;-89
2021/05/22 07:56:29;;;;;;;3.43;1.10;;;11.50;59.60;;;;;;4999814;28;20208;-91
2021/05/22 07:58:54;;;;;;;2.63;1.07;;;11.00;59.60;;;;;;5036929;28;20424;-89
2021/05/22 08:01:20;;;;;;;0.90;0.90;;;12.80;63.00;;;;;;5015506;28;20526;-90
2021/05/22 08:03:46;;;;;;;4.20;1.60;;;11.40;61.90;;;;;;4992809;28;20187;-90
2021/05/22 08:06:13;;;;;;;1.23;1.23;;;12.30;62.00;;;;;;5005696;28;20600;-91
2021/05/22 08:08:38;;;;;;;3.90;1.30;;;12.80;63.00;;;;;;5020759;28;20199;-90
2021/05/22 08:11:04;;;;;;;1.27;1.20;;;11.90;62.50;;;;;;4999794;28;20581;-90
2021/05/22 08:13:31;;;;;;;2.00;1.07;;;10.90;60.90;;;;;;5006304;28;20231;-89
2021/05/22 08:15:57;;;;;;;0.80;0.80;;;11.20;62.40;;;;;;4996669;28;20526;-92
2021/05/22 08:18:23;;;;;;;2.40;1.13;;;13.30;66.70;;;;;;4989096;28;20423;-86
2021/05/22 08:20:50;;;;;;;0.73;0.73;;;13.30;64.30;;;;;;5012103;28;20431;-88
2021/05/22 08:23:15;;;;;;;1.10;1.10;;;11.30;62.40;;;;;;5003398;28;20458;-86
2021/05/22 08:25:41;;;;;;;4.33;0.70;;;11.90;65.50;;;;;;5005961;28;20419;-88
2021/05/22 08:28:08;;;;;;;1.87;1.33;;;12.20;65.70;;;;;;4997494;28;20259;-86
2021/05/22 08:30:34;;;;;;;1.53;1.17;;;11.50;62.80;;;;;;5016078;28;20161;-86
2021/05/22 08:33:01;;;;;;;1.57;1.13;;;11.30;62.10;;;;;;5013518;28;20411;-86
2021/05/22 08:35:29;;;;;;;1.10;1.10;;;11.30;62.90;;;;;;4998084;28;20840;-88
2021/05/22 08:37:54;;;;;;;1.80;1.00;;;11.10;63.50;;;;;;4997086;28;20625;-88
2021/05/22 08:40:20;;;;;;;3.63;1.20;;;11.30;65.90;;;;;;5014729;28;20478;-89
2021/05/22 08:42:45;;;;;;;2.60;0.90;;;10.60;65.30;;;;;;5017293;28;20296;-88
2021/05/22 08:45:20;;;;;;;3.63;1.30;;;10.80;66.40;;;;;;4668603;28;10000339;-89
2021/05/22 08:47:48;;;;;;;1.07;1.07;;;10.70;70.30;;;;;;5030211;28;20191;-89
2021/05/22 08:50:29;;;;;;;1.93;1.40;;;10.60;72.60;;;;;;5016530;28;20479;-90
2021/05/22 08:53:06;;;;;;;1.50;1.50;;;10.90;76.10;;;;;;5023148;28;20472;-90
2021/05/22 08:55:35;;;;;;;3.13;1.23;;;9.10;72.60;;;;;;5017037;28;20187;-87
2021/05/22 08:58:01;;;;;;;1.63;1.52;;;10.40;74.60;;;;;;5112441;23;20470;-89
2021/05/22 09:00:38;;;;;;;1.70;1.17;;;9.80;75.80;;;;;;5051245;28;20183;-89
2021/05/22 09:03:07;;;;;;;1.70;1.60;;;10.40;72.30;;;;;;5034076;28;20179;-90
2021/05/22 09:05:42;;;;;;;1.10;1.10;;;10.30;73.50;;;;;;5051779;28;20447;-90
2021/05/22 09:08:17;;;;;;;1.53;1.53;;;10.50;74.30;;;;;;5050844;28;20431;-90
2021/05/22 09:10:51;;;;;;;2.77;1.30;;;10.40;76.80;;;;;;5051840;28;20467;-91
2021/05/22 09:13:28;;;;;;;1.60;1.40;;;10.50;73.60;;;;;;5019827;28;20415;-86
2021/05/22 09:16:36;;;;;;;4.63;1.70;;;11.00;73.90;;;;;;5052058;28;20427;-86
2021/05/22 09:19:06;;;;;;;1.50;1.50;;;11.20;75.00;;;;;;5052135;28;20414;-88
2021/05/22 09:21:38;;;;;;;1.30;1.17;;;10.50;74.80;;;;;;5053247;28;20414;-88
2021/05/22 09:24:09;;;;;;;1.70;1.40;;;10.30;77.30;;;;;;5052144;28;21325;-90
2021/05/22 09:26:35;;;;;;;2.20;1.63;;;10.80;75.20;;;;;;5053154;28;20180;-87
2021/05/22 09:29:03;;;;;;;5.13;1.80;;;10.60;78.70;;;;;;5051028;28;20183;-88
2021/05/22 09:31:29;;;;;;;2.27;1.70;;;10.50;76.70;;;;;;5042021;28;20180;-87
2021/05/22 09:34:00;;;;;;;4.23;1.40;;;10.50;75.60;;;;;;5046419;28;20540;-90
2021/05/22 09:36:26;;;;;;;5.47;2.05;;;10.60;75.10;;;;;;5015980;28;20211;-88
2021/05/22 09:38:54;;;;;;;1.80;1.43;;;9.60;78.20;;;;;;5046937;28;20275;-91
2021/05/22 09:41:33;;;;;;;2.93;1.30;;;11.10;75.00;;;;;;5047685;28;20442;-85
2021/05/22 09:44:25;;;;;;;2.22;1.50;;;10.60;73.40;;;;;;5046630;28;20422;-88
2021/05/22 09:46:54;;;;;;;4.90;1.53;;;10.60;73.00;;;;;;5045508;28;20190;-89
2021/05/22 09:49:34;;;;;;;2.87;1.53;;;10.40;72.30;;;;;;5048685;28;21130;-88
2021/05/22 09:52:18;;;;;;;6.53;2.83;;;12.50;72.10;;;;;;5045814;28;20421;-89
2021/05/22 09:54:53;;;;;;;1.50;1.30;;;12.40;72.10;;;;;;5047574;28;20422;-90
2021/05/22 09:57:32;;;;;;;4.83;2.27;;;12.30;70.80;;;;;;5047344;28;20474;-89
2021/05/22 10:00:26;;;;;;;3.70;1.77;;;11.60;68.20;;;;;;5029296;28;20402;-89
2021/05/22 10:02:54;;;;;;;4.80;1.63;;;11.60;67.60;;;;;;5021609;28;20431;-91
2021/05/22 10:05:35;;;;;;;1.50;1.40;;;11.50;68.50;;;;;;5015884;28;20517;-91
2021/05/22 10:08:03;;;;;;;7.33;1.63;;;9.60;65.20;;;;;;5025451;28;20427;-89
2021/05/22 10:10:46;;;;;;;7.50;1.53;;;10.10;67.00;;;;;;5028215;28;20427;-89
2021/05/22 10:13:14;;;;;;;5.77;1.67;;;12.40;68.40;;;;;;5028432;28;20415;-90
2021/05/22 10:15:41;;;;;;;5.23;2.40;;;13.50;69.80;;;;;;5013026;28;20995;-89
2021/05/22 10:18:08;;;;;;;2.93;1.03;;;10.60;64.80;;;;;;5049506;28;20476;-88
2021/05/22 10:20:34;;;;;;;3.90;1.60;;;11.50;68.50;;;;;;5034373;28;20415;-89
2021/05/22 10:23:01;;;;;;;1.90;1.33;;;12.60;73.90;;;;;;5016683;28;20480;-89
2021/05/22 10:25:27;;;;;;;3.03;1.73;;;11.40;69.90;;;;;;5033202;28;20468;-88
2021/05/22 10:27:53;;;;;;;2.67;2.13;;;11.30;69.60;;;;;;5014382;28;20431;-87
2021/05/22 10:30:20;;;;;;;1.70;1.07;;;11.40;70.60;;;;;;5030642;28;20469;-88
2021/05/22 10:32:48;;;;;;;1.67;1.57;;;11.50;67.30;;;;;;5029541;28;20171;-91
2021/05/22 10:35:25;;;;;;;6.30;1.37;;;11.50;70.20;;;;;;5033858;28;20468;-87
2021/05/22 10:37:51;;;;;;;5.27;1.40;;;11.50;71.00;;;;;;5033545;28;20560;-89
2021/05/22 10:40:41;;;;;;;2.60;2.50;;;11.70;71.50;;;;;;5027173;28;20438;-88
2021/05/22 10:43:10;;;;;;;2.73;1.73;;;11.60;70.80;;;;;;5033671;28;20442;-89
2021/05/22 10:45:38;;;;;;;5.93;1.70;;;13.00;73.10;;;;;;5022944;28;20454;-86
2021/05/22 10:48:28;;;;;;;1.50;1.40;;;11.40;70.10;;;;;;5036439;28;20429;-85
2021/05/22 10:50:55;;;;;;;2.43;1.80;;;11.40;71.20;;;;;;5035270;28;20422;-86
2021/05/22 10:53:33;;;;;;;5.17;1.73;;;11.30;71.00;;;;;;5035916;28;20433;-85
2021/05/22 10:56:15;;;;;;;4.80;1.87;;;11.30;70.80;;;;;;5035756;28;20423;-84
2021/05/22 10:58:59;;;;;;;1.80;1.53;;;11.40;71.70;;;;;;5035514;28;21048;-85
2021/05/22 11:01:29;;;;;;;1.80;1.70;;;11.50;72.50;;;;;;5017876;28;20851;-84
2021/05/22 11:04:18;;;;;;;1.93;1.80;;;11.60;72.60;;;;;;5035878;28;20418;-84
2021/05/22 11:06:49;;;;;;;5.93;1.70;;;11.60;71.80;;;;;;5035631;28;20426;-85
2021/05/22 11:09:26;;;;;;;2.50;2.10;;;11.60;73.90;;;;;;5035755;28;20748;-87
2021/05/22 11:11:59;;;;;;;4.80;1.70;;;11.50;75.20;;;;;;5035128;28;20741;-85
2021/05/22 11:14:52;;;;;;;1.70;1.60;;;11.50;74.60;;;;;;5017114;28;20502;-86
2021/05/22 11:17:26;;;;;;;6.07;3.03;;;11.50;75.30;;;;;;5018152;28;20468;-85
2021/05/22 11:22:25;;;;;;;2.00;1.90;;;11.50;75.20;;;;;;5034908;28;20238;-84
2021/05/22 11:25:07;;;;;;;1.00;1.00;;;11.50;74.30;;;;;;5017482;28;20410;-84
2021/05/22 11:30:12;;;;;;;2.30;2.10;;;11.60;74.90;;;;;;5034980;28;20499;-86
2021/05/22 11:32:50;;;;;;;6.60;2.60;;;11.60;74.40;;;;;;5034595;28;20407;-84
2021/05/22 11:37:57;;;;;;;3.90;1.53;;;11.70;73.00;;;;;;5020788;28;20973;-86
2021/05/22 11:40:35;;;;;;;4.47;1.90;;;11.70;73.40;;;;;;5014658;28;20926;-83
2021/05/22 11:43:22;;;;;;;2.93;1.73;;;11.70;73.40;;;;;;5024645;28;20419;-83
2021/05/22 11:45:55;;;;;;;7.10;2.13;;;11.90;75.00;;;;;;5014804;28;20435;-84
2021/05/22 11:48:43;;;;;;;2.47;2.10;;;11.90;74.50;;;;;;4685272;28;10001146;-83
2021/05/22 11:51:09;;;;;;;3.33;2.50;;;11.90;73.90;;;;;;5014614;28;20172;-84
2021/05/22 11:53:36;;;;;;;3.00;1.93;;;12.00;72.30;;;;;;5032426;28;20425;-86
2021/05/22 11:56:09;;;;;;;3.70;2.43;;;12.00;71.90;;;;;;5032313;28;20179;-84
2021/05/22 11:58:37;;;;;;;3.57;2.63;;;12.00;72.70;;;;;;5031631;28;20788;-85
2021/05/22 12:01:33;;;;;;;3.33;2.13;;;11.80;72.50;;;;;;5033460;28;20406;-85
2021/05/22 12:04:03;;;;;;;2.97;2.20;;;11.70;72.40;;;;;;5034156;28;20778;-85
2021/05/22 12:06:35;;;;;;;3.17;1.37;;;11.60;74.50;;;;;;5034578;28;20891;-84
2021/05/22 12:09:20;;;;;;;4.97;2.13;;;11.60;73.20;;;;;;5034434;28;20773;-84
2021/05/22 12:11:54;;;;;;;2.97;1.80;;;11.60;73.80;;;;;;5034460;28;20407;-83
2021/05/22 12:14:20;;;;;;;7.20;1.93;;;11.50;72.90;;;;;;5034519;28;20770;-84
2021/05/22 12:16:46;;;;;;;3.63;2.60;;;11.50;73.20;;;;;;5034572;28;20462;-83
2021/05/22 12:19:14;;;;;;;4.17;2.10;;;11.50;74.40;;;;;;5034205;28;20178;-83
2021/05/22 12:21:40;;;;;;;2.53;2.27;;;11.50;74.30;;;;;;5016657;28;20279;-84
2021/05/22 12:24:11;;;;;;;3.30;1.60;;;11.60;72.50;;;;;;5034155;28;20437;-85
2021/05/22 12:26:39;;;;;;;2.47;2.00;;;11.70;71.60;;;;;;5034506;28;20418;-84
2021/05/22 12:29:08;;;;;;;2.87;2.07;;;11.60;71.50;;;;;;5034070;28;20453;-84
2021/05/22 12:31:35;;;;;;;4.43;2.50;;;11.60;72.40;;;;;;5034079;28;20497;-85
2021/05/22 12:34:06;;;;;;;2.30;2.27;;;11.60;72.60;;;;;;5032551;28;20447;-85
2021/05/22 12:36:33;;;;;;;6.27;2.60;;;11.60;73.20;;;;;;5022807;28;20459;-85
2021/05/22 12:39:13;;;;;;;3.13;2.47;;;11.60;73.30;;;;;;5033895;28;20415;-84
2021/05/22 12:41:39;;;;;;;3.13;2.47;;;11.80;71.80;;;;;;5033917;28;20411;-83
2021/05/22 12:44:07;;;;;;;2.80;1.80;;;11.80;72.70;;;;;;5033953;28;20418;-83
2021/05/22 12:46:38;;;;;;;2.53;2.37;;;11.80;72.60;;;;;;5033911;28;20411;-84
2021/05/22 12:49:20;;;;;;;2.70;1.93;;;11.80;73.40;;;;;;5040371;28;20415;-87
2021/05/22 12:52:07;;;;;;;7.10;2.10;;;11.70;73.80;;;;;;5296188;23;20483;-88
2021/05/22 12:57:19;;;;;;;2.57;2.10;;;11.70;75.80;;;;;;5068978;23;20477;-86
2021/05/22 13:00:21;;;;;;;7.00;2.70;;;11.80;75.40;;;;;;5033854;28;20443;-90
2021/05/22 13:05:48;;;;;;;2.23;2.07;;;11.50;77.70;;;;;;5116744;23;20456;-90
2021/05/22 13:08:24;;;;;;;3.33;2.60;;;13.30;81.30;;;;;;5052393;23;20883;-85
2021/05/22 13:13:25;;;;;;;3.37;3.13;;;11.50;78.40;;;;;;5174814;23;20464;-87
2021/05/22 13:15:54;;;;;;;5.40;2.80;;;11.50;85.10;;;;;;5137049;23;20557;-91
2021/05/22 13:18:32;;;;;;;5.30;2.47;;;12.20;83.90;;;;;;5019334;28;20216;-90
2021/05/22 13:23:54;;;;;;;2.87;2.67;;;11.60;80.10;;;;;;5085695;23;20506;-90
2021/05/22 13:34:11;;;;;;;3.40;3.10;;;11.50;81.20;;;;;;5224723;23;20472;-91
2021/05/22 13:36:51;;;;;;;3.60;3.40;;;11.30;83.60;;;;;;5334009;23;20513;-86
2021/05/22 13:47:43;;;;;;;4.13;3.57;;;11.40;82.80;;;;;;5554639;23;20475;-88
2021/05/22 13:50:20;;;;;;;3.73;3.43;;;13.20;90.20;;;;;;5281866;23;20475;-90
2021/05/22 13:58:14;;;;;;;2.67;2.60;;;12.60;86.00;;;;;;5236278;23;20486;-88
2021/05/22 14:00:45;;;;;;;3.43;3.13;;;12.10;86.40;;;;;;5019076;28;20416;-89
2021/05/22 14:03:11;;;;;;;3.20;2.67;;;11.40;81.90;;;;;;5017919;28;20422;-91
2021/05/22 14:05:38;;;;;;;1.80;1.70;;;12.50;86.30;;;;;;5017850;28;20423;-90
2021/05/22 14:08:08;;;;;;;5.10;2.30;;;12.00;84.90;;;;;;5177237;23;20462;-88
2021/05/22 14:10:34;;;;;;;3.20;2.27;;;12.10;80.50;;;;;;5033616;28;20427;-90
2021/05/22 14:15:35;;;;;;;1.60;1.60;;;11.40;81.30;;;;;;5391915;23;20228;-88
2021/05/22 14:23:29;;;;;;;3.58;2.38;;;11.30;82.90;;;;;;5193366;23;20470;-91
2021/05/22 14:28:43;;;;;;;;;;;;;;;;;;;;;
2021/05/22 14:56:33;;;;;;;1.87;1.77;;;11.30;80.40;;;;;;5877494;23;20491;-87
2021/05/22 14:59:01;;;;;;;4.30;2.80;;;12.40;82.30;;;;;;5307597;23;20457;-88
2021/05/22 15:31:17;;;;;;;1.80;1.70;;;11.30;81.90;;;;;;5600189;23;20451;-92
2021/05/22 15:39:07;;;;;;;1.90;1.80;;;11.30;80.60;;;;;;5285168;23;21029;-90
2021/05/22 15:47:10;;;;;;;1.53;1.30;;;11.50;79.30;;;;;;5361804;23;20495;-91
2021/05/22 16:10:20;;;;;;;1.47;1.47;;;11.40;81.00;;;;;;5517498;22;20222;-88
2021/05/22 16:16:06;;;;;;;1.97;1.97;;;11.50;81.10;;;;;;5926789;23;20444;-88
2021/05/22 16:18:35;;;;;;;2.07;2.07;;;11.90;81.90;;;;;;5815033;23;20455;-88
2021/05/22 16:23:51;;;;;;;2.10;2.10;;;11.80;80.30;;;;;;5064231;23;20553;-90
2021/05/22 16:26:17;;;;;;;2.50;2.40;;;11.60;83.50;;;;;;5036943;28;20439;-88
2021/05/22 16:28:42;;;;;;;2.57;2.57;;;11.70;83.00;;;;;;5026795;28;20179;-89
2021/05/22 16:31:28;;;;;;;2.37;2.37;;;11.60;83.00;;;;;;5049756;28;20168;-90
2021/05/22 16:33:59;;;;;;;2.30;2.30;;;11.80;82.10;;;;;;5039799;28;20194;-88
2021/05/22 16:36:27;;;;;;;3.20;3.10;;;11.80;82.20;;;;;;5025653;28;20427;-88
2021/05/22 16:39:01;;;;;;;2.80;2.70;;;12.80;83.80;;;;;;5040871;28;20439;-92
2021/05/22 16:41:57;;;;;;;;;;;;;;;;;;;;;
2021/05/22 16:44:35;;;;;;;1.83;1.73;;;12.40;81.90;;;;;;5051613;28;20466;-89
2021/05/22 16:47:07;;;;;;;2.03;2.03;;;11.80;79.80;;;;;;5056705;28;20415;-86
2021/05/22 16:52:08;;;;;;;1.80;1.80;;;11.60;79.80;;;;;;5186970;23;20461;-90
2021/05/22 16:54:37;;;;;;;1.40;1.40;;;12.40;85.00;;;;;;5039617;28;20486;-87
2021/05/22 16:57:08;;;;;;;15.40;13.97;;;13.30;83.70;;;;;;4732228;23;10002064;-89
2021/05/22 16:59:34;;;;;;;1.83;1.83;;;11.40;82.10;;;;;;5038198;28;20187;-89